sensor_id;sensor_type;location;lat;lon;timestamp;pressure;altitude;pressure_sealevel;temperature;humidity
79250;BME280;68679;51.030;7.584;2023-05-07T00:01:28;98992.59;;;14.32;63.55
79250;BME280;68679;51.030;7.584;2023-05-07T00:03:53;98986.53;;;14.32;63.69
79250;BME280;68679;51.030;7.584;2023-05-07T00:06:18;98989.47;;;14.30;63.78
79250;BME280;68679;51.030;7.584;2023-05-07T00:08:44;98989.47;;;14.30;63.68
79250;BME280;68679;51.030;7.584;2023-05-07T00:11:10;98988.69;;;14.30;64.17
79250;BME280;68679;51.030;7.584;2023-05-07T00:13:35;99000.63;;;14.27;63.74
79250;BME280;68679;51.030;7.584;2023-05-07T00:16:03;98994.28;;;14.28;63.80
79250;BME280;68679;51.030;7.584;2023-05-07T00:18:29;98992.22;;;14.25;63.88
79250;BME280;68679;51.030;7.584;2023-05-07T00:20:54;98991.44;;;14.25;63.77
79250;BME280;68679;51.030;7.584;2023-05-07T00:23:20;98991.16;;;14.26;63.81
79250;BME280;68679;51.030;7.584;2023-05-07T00:25:45;98984.59;;;14.23;63.98
79250;BME280;68679;51.030;7.584;2023-05-07T00:28:10;98980.88;;;14.25;63.87
79250;BME280;68679;51.030;7.584;2023-05-07T00:30:36;98975.91;;;14.23;64.02
79250;BME280;68679;51.030;7.584;2023-05-07T00:33:01;98973.56;;;14.21;63.89
79250;BME280;68679;51.030;7.584;2023-05-07T00:35:26;98967.53;;;14.21;63.97
79250;BME280;68679;51.030;7.584;2023-05-07T00:37:51;98971.25;;;14.20;63.72
79250;BME280;68679;51.030;7.584;2023-05-07T00:40:17;98967.03;;;14.19;63.91
79250;BME280;68679;51.030;7.584;2023-05-07T00:42:42;98967.78;;;14.19;63.97
79250;BME280;68679;51.030;7.584;2023-05-07T00:45:12;98965.16;;;14.19;63.91
79250;BME280;68679;51.030;7.584;2023-05-07T00:47:37;98970.72;;;14.18;64.03
79250;BME280;68679;51.030;7.584;2023-05-07T00:50:03;98972.13;;;14.15;64.05
79250;BME280;68679;51.030;7.584;2023-05-07T00:52:29;98969.19;;;14.17;63.83
79250;BME280;68679;51.030;7.584;2023-05-07T00:54:54;98957.38;;;14.14;64.09
79250;BME280;68679;51.030;7.584;2023-05-07T00:57:20;98959.72;;;14.16;64.06
79250;BME280;68679;51.030;7.584;2023-05-07T00:59:46;98968.41;;;14.16;63.98
79250;BME280;68679;51.030;7.584;2023-05-07T01:02:11;98971.63;;;14.13;64.17
79250;BME280;68679;51.030;7.584;2023-05-07T01:04:37;98976.09;;;14.13;64.10
79250;BME280;68679;51.030;7.584;2023-05-07T01:07:03;98980.91;;;14.11;64.27
79250;BME280;68679;51.030;7.584;2023-05-07T01:09:28;98978.28;;;14.11;64.14
79250;BME280;68679;51.030;7.584;2023-05-07T01:11:55;98982.00;;;14.10;64.17
79250;BME280;68679;51.030;7.584;2023-05-07T01:14:22;98986.47;;;14.09;64.13
79250;BME280;68679;51.030;7.584;2023-05-07T01:16:48;98986.47;;;14.09;64.16
79250;BME280;68679;51.030;7.584;2023-05-07T01:19:14;98987.84;;;14.07;64.21
79250;BME280;68679;51.030;7.584;2023-05-07T01:21:45;98982.28;;;14.08;64.27
79250;BME280;68679;51.030;7.584;2023-05-07T01:24:12;98976.50;;;14.06;64.34
79250;BME280;68679;51.030;7.584;2023-05-07T01:26:38;98971.25;;;14.06;64.31
79250;BME280;68679;51.030;7.584;2023-05-07T01:29:03;98968.91;;;14.05;64.22
79250;BME280;68679;51.030;7.584;2023-05-07T01:31:28;98972.31;;;14.05;64.33
79250;BME280;68679;51.030;7.584;2023-05-07T01:33:55;98971.53;;;14.05;64.67
79250;BME280;68679;51.030;7.584;2023-05-07T01:36:22;98957.88;;;14.03;64.42
79250;BME280;68679;51.030;7.584;2023-05-07T01:38:51;98959.75;;;14.02;64.56
79250;BME280;68679;51.030;7.584;2023-05-07T01:41:17;98961.59;;;14.02;64.38
79250;BME280;68679;51.030;7.584;2023-05-07T01:43:42;98958.97;;;14.02;64.47
79250;BME280;68679;51.030;7.584;2023-05-07T01:46:09;98961.59;;;14.02;64.53
79250;BME280;68679;51.030;7.584;2023-05-07T01:48:35;98960.53;;;14.03;64.47
79250;BME280;68679;51.030;7.584;2023-05-07T01:51:01;98962.66;;;14.01;64.54
79250;BME280;68679;51.030;7.584;2023-05-07T01:53:27;98956.59;;;14.00;64.41
79250;BME280;68679;51.030;7.584;2023-05-07T01:55:53;98956.91;;;13.99;64.47
79250;BME280;68679;51.030;7.584;2023-05-07T01:58:18;98953.19;;;14.00;64.59
79250;BME280;68679;51.030;7.584;2023-05-07T02:00:44;98954.75;;;14.01;64.41
79250;BME280;68679;51.030;7.584;2023-05-07T02:03:09;98959.53;;;13.99;64.58
79250;BME280;68679;51.030;7.584;2023-05-07T02:05:34;98948.50;;;13.97;64.68
79250;BME280;68679;51.030;7.584;2023-05-07T02:07:59;98949.59;;;13.95;64.58
79250;BME280;68679;51.030;7.584;2023-05-07T02:10:25;98946.44;;;13.93;64.67
79250;BME280;68679;51.030;7.584;2023-05-07T02:12:50;98955.13;;;13.94;64.80
79250;BME280;68679;51.030;7.584;2023-05-07T02:15:15;98960.13;;;13.95;64.73
79250;BME280;68679;51.030;7.584;2023-05-07T02:18:04;98954.88;;;13.95;64.35
79250;BME280;68679;51.030;7.584;2023-05-07T02:20:31;98954.38;;;13.93;64.65
79250;BME280;68679;51.030;7.584;2023-05-07T02:22:56;98945.97;;;13.91;64.98
79250;BME280;68679;51.030;7.584;2023-05-07T02:25:21;98948.31;;;13.93;64.89
79250;BME280;68679;51.030;7.584;2023-05-07T02:27:47;98944.13;;;13.92;64.74
79250;BME280;68679;51.030;7.584;2023-05-07T02:30:13;98946.28;;;13.90;64.88
79250;BME280;68679;51.030;7.584;2023-05-07T02:32:39;98943.66;;;13.90;64.74
79250;BME280;68679;51.030;7.584;2023-05-07T02:35:05;98956.81;;;13.90;64.56
79250;BME280;68679;51.030;7.584;2023-05-07T02:37:30;98949.97;;;13.89;64.97
79250;BME280;68679;51.030;7.584;2023-05-07T02:39:55;98945.00;;;13.87;64.71
79250;BME280;68679;51.030;7.584;2023-05-07T02:42:20;98952.13;;;13.87;64.88
79250;BME280;68679;51.030;7.584;2023-05-07T02:44:46;98948.72;;;13.86;64.80
79250;BME280;68679;51.030;7.584;2023-05-07T02:47:11;98944.53;;;13.85;64.98
79250;BME280;68679;51.030;7.584;2023-05-07T02:49:38;98935.53;;;13.86;64.69
79250;BME280;68679;51.030;7.584;2023-05-07T02:52:03;98945.59;;;13.84;64.71
79250;BME280;68679;51.030;7.584;2023-05-07T02:54:28;98940.91;;;13.81;64.78
79250;BME280;68679;51.030;7.584;2023-05-07T02:56:53;98944.03;;;13.83;65.05
79250;BME280;68679;51.030;7.584;2023-05-07T02:59:19;98940.59;;;13.83;64.64
79250;BME280;68679;51.030;7.584;2023-05-07T03:01:44;98953.31;;;13.81;65.18
79250;BME280;68679;51.030;7.584;2023-05-07T03:04:10;98947.25;;;13.80;64.64
79250;BME280;68679;51.030;7.584;2023-05-07T03:06:35;98947.03;;;13.77;64.99
79250;BME280;68679;51.030;7.584;2023-05-07T03:09:01;98947.84;;;13.77;64.72
79250;BME280;68679;51.030;7.584;2023-05-07T03:11:26;98948.13;;;13.76;64.67
79250;BME280;68679;51.030;7.584;2023-05-07T03:13:52;98947.34;;;13.75;64.70
79250;BME280;68679;51.030;7.584;2023-05-07T03:16:17;98940.22;;;13.76;64.63
79250;BME280;68679;51.030;7.584;2023-05-07T03:18:42;98943.16;;;13.74;64.72
79250;BME280;68679;51.030;7.584;2023-05-07T03:21:08;98944.22;;;13.73;64.79
79250;BME280;68679;51.030;7.584;2023-05-07T03:23:33;98942.69;;;13.72;64.79
79250;BME280;68679;51.030;7.584;2023-05-07T03:25:59;98943.44;;;13.73;64.75
79250;BME280;68679;51.030;7.584;2023-05-07T03:28:24;98942.94;;;13.71;64.62
79250;BME280;68679;51.030;7.584;2023-05-07T03:30:49;98941.38;;;13.69;64.58
79250;BME280;68679;51.030;7.584;2023-05-07T03:33:15;98940.63;;;13.69;64.90
79250;BME280;68679;51.030;7.584;2023-05-07T03:35:40;98931.94;;;13.68;64.75
79250;BME280;68679;51.030;7.584;2023-05-07T03:38:06;98934.88;;;13.67;65.00
79250;BME280;68679;51.030;7.584;2023-05-07T03:40:31;98932.22;;;13.67;64.92
79250;BME280;68679;51.030;7.584;2023-05-07T03:42:56;98936.72;;;13.66;64.90
79250;BME280;68679;51.030;7.584;2023-05-07T03:45:21;98937.00;;;13.65;64.80
79250;BME280;68679;51.030;7.584;2023-05-07T03:47:47;98935.94;;;13.66;64.84
79250;BME280;68679;51.030;7.584;2023-05-07T03:50:12;98937.00;;;13.65;65.08
79250;BME280;68679;51.030;7.584;2023-05-07T03:52:37;98945.97;;;13.64;64.84
79250;BME280;68679;51.030;7.584;2023-05-07T03:55:03;98942.25;;;13.65;64.78
79250;BME280;68679;51.030;7.584;2023-05-07T03:57:28;98946.75;;;13.64;64.87
79250;BME280;68679;51.030;7.584;2023-05-07T03:59:54;98947.84;;;13.63;64.90
79250;BME280;68679;51.030;7.584;2023-05-07T04:02:19;98951.53;;;13.62;65.09
79250;BME280;68679;51.030;7.584;2023-05-07T04:04:44;98954.19;;;13.62;65.04
79250;BME280;68679;51.030;7.584;2023-05-07T04:07:09;98964.72;;;13.62;65.06
79250;BME280;68679;51.030;7.584;2023-05-07T04:09:35;98960.53;;;13.61;65.42
79250;BME280;68679;51.030;7.584;2023-05-07T04:12:00;98951.84;;;13.61;65.28
79250;BME280;68679;51.030;7.584;2023-05-07T04:14:26;98953.41;;;13.62;65.04
79250;BME280;68679;51.030;7.584;2023-05-07T04:16:51;98956.34;;;13.60;65.14
79250;BME280;68679;51.030;7.584;2023-05-07T04:19:16;98960.53;;;13.61;65.17
79250;BME280;68679;51.030;7.584;2023-05-07T04:21:42;98956.03;;;13.62;65.23
79250;BME280;68679;51.030;7.584;2023-05-07T04:24:08;98958.66;;;13.62;65.44
79250;BME280;68679;51.030;7.584;2023-05-07T04:26:33;98952.63;;;13.61;65.37
79250;BME280;68679;51.030;7.584;2023-05-07T04:28:58;98958.66;;;13.62;65.18
79250;BME280;68679;51.030;7.584;2023-05-07T04:31:24;98952.63;;;13.61;65.30
79250;BME280;68679;51.030;7.584;2023-05-07T04:33:50;98949.50;;;13.59;65.99
79250;BME280;68679;51.030;7.584;2023-05-07T04:36:16;98958.97;;;13.60;65.37
79250;BME280;68679;51.030;7.584;2023-05-07T04:38:42;98956.34;;;13.60;65.77
79250;BME280;68679;51.030;7.584;2023-05-07T04:41:08;98958.97;;;13.60;65.36
79250;BME280;68679;51.030;7.584;2023-05-07T04:43:34;98954.47;;;13.61;65.76
79250;BME280;68679;51.030;7.584;2023-05-07T04:45:59;98953.69;;;13.60;65.49
79250;BME280;68679;51.030;7.584;2023-05-07T04:48:24;98956.34;;;13.60;65.68
79250;BME280;68679;51.030;7.584;2023-05-07T04:50:50;98951.84;;;13.61;66.03
79250;BME280;68679;51.030;7.584;2023-05-07T04:53:16;98956.03;;;13.62;66.14
79250;BME280;68679;51.030;7.584;2023-05-07T04:55:42;98962.88;;;13.63;65.99
79250;BME280;68679;51.030;7.584;2023-05-07T04:58:08;98962.56;;;13.64;66.10
79250;BME280;68679;51.030;7.584;2023-05-07T05:00:33;98963.34;;;13.65;65.96
79250;BME280;68679;51.030;7.584;2023-05-07T05:02:58;98970.97;;;13.66;66.16
79250;BME280;68679;51.030;7.584;2023-05-07T05:05:24;98969.13;;;13.67;66.52
79250;BME280;68679;51.030;7.584;2023-05-07T05:07:49;98966.19;;;13.68;66.56
79250;BME280;68679;51.030;7.584;2023-05-07T05:10:16;98975.66;;;13.69;66.72
79250;BME280;68679;51.030;7.584;2023-05-07T05:12:42;98973.22;;;13.73;66.44
79250;BME280;68679;51.030;7.584;2023-05-07T05:15:08;98973.69;;;13.75;66.74
79250;BME280;68679;51.030;7.584;2023-05-07T05:17:33;98973.41;;;13.77;66.92
79250;BME280;68679;51.030;7.584;2023-05-07T05:20:00;98969.41;;;13.79;67.23
79250;BME280;68679;51.030;7.584;2023-05-07T05:22:25;98978.00;;;13.85;66.46
79250;BME280;68679;51.030;7.584;2023-05-07T05:24:50;98978.00;;;13.85;66.93
79250;BME280;68679;51.030;7.584;2023-05-07T05:27:16;98975.53;;;13.88;66.74
79250;BME280;68679;51.030;7.584;2023-05-07T05:29:41;98980.72;;;13.93;66.83
79250;BME280;68679;51.030;7.584;2023-05-07T05:32:06;98974.66;;;13.93;67.19
79250;BME280;68679;51.030;7.584;2023-05-07T05:34:32;98973.59;;;13.94;67.60
79250;BME280;68679;51.030;7.584;2023-05-07T05:36:59;98977.50;;;13.97;67.63
79250;BME280;68679;51.030;7.584;2023-05-07T05:39:24;98975.66;;;13.97;68.05
79250;BME280;68679;51.030;7.584;2023-05-07T05:41:49;98971.94;;;13.98;68.06
79250;BME280;68679;51.030;7.584;2023-05-07T05:44:14;98974.47;;;14.03;67.37
79250;BME280;68679;51.030;7.584;2023-05-07T05:46:40;98982.09;;;14.05;67.35
79250;BME280;68679;51.030;7.584;2023-05-07T05:49:05;98989.91;;;14.10;66.63
79250;BME280;68679;51.030;7.584;2023-05-07T05:51:30;98985.88;;;14.12;66.89
79250;BME280;68679;51.030;7.584;2023-05-07T05:53:56;98981.09;;;14.14;67.56
79250;BME280;68679;51.030;7.584;2023-05-07T05:56:21;98982.06;;;14.18;67.72
79250;BME280;68679;51.030;7.584;2023-05-07T05:58:46;98984.91;;;14.22;68.05
79250;BME280;68679;51.030;7.584;2023-05-07T06:01:12;98985.38;;;14.24;68.40
79250;BME280;68679;51.030;7.584;2023-05-07T06:03:37;98986.34;;;14.28;68.19
79250;BME280;68679;51.030;7.584;2023-05-07T06:06:02;98995.25;;;14.32;68.42
79250;BME280;68679;51.030;7.584;2023-05-07T06:08:29;98996.97;;;14.37;68.49
79250;BME280;68679;51.030;7.584;2023-05-07T06:10:55;98985.53;;;14.41;69.00
79250;BME280;68679;51.030;7.584;2023-05-07T06:13:21;98991.03;;;14.45;67.88
79250;BME280;68679;51.030;7.584;2023-05-07T06:15:46;98983.59;;;14.47;67.19
79250;BME280;68679;51.030;7.584;2023-05-07T06:18:11;98997.00;;;14.51;67.55
79250;BME280;68679;51.030;7.584;2023-05-07T06:20:36;98992.38;;;14.56;69.66
79250;BME280;68679;51.030;7.584;2023-05-07T06:23:02;98987.28;;;14.60;66.97
79250;BME280;68679;51.030;7.584;2023-05-07T06:25:27;98995.09;;;14.65;66.72
79250;BME280;68679;51.030;7.584;2023-05-07T06:27:52;98996.84;;;14.69;66.64
79250;BME280;68679;51.030;7.584;2023-05-07T06:30:18;98997.50;;;14.75;65.19
79250;BME280;68679;51.030;7.584;2023-05-07T06:32:43;98993.94;;;14.80;64.43
79250;BME280;68679;51.030;7.584;2023-05-07T06:35:08;98999.13;;;14.85;64.42
79250;BME280;68679;51.030;7.584;2023-05-07T06:37:33;98995.13;;;14.87;64.27
79250;BME280;68679;51.030;7.584;2023-05-07T06:39:59;99000.25;;;14.92;63.96
79250;BME280;68679;51.030;7.584;2023-05-07T06:42:24;99002.00;;;14.97;63.82
79250;BME280;68679;51.030;7.584;2023-05-07T06:44:49;99002.19;;;15.00;63.79
79250;BME280;68679;51.030;7.584;2023-05-07T06:47:15;99000.53;;;15.05;63.56
79250;BME280;68679;51.030;7.584;2023-05-07T06:49:40;99007.25;;;15.11;63.33
79250;BME280;68679;51.030;7.584;2023-05-07T06:52:05;99007.09;;;15.16;63.52
79250;BME280;68679;51.030;7.584;2023-05-07T06:54:31;99014.91;;;15.21;63.14
79250;BME280;68679;51.030;7.584;2023-05-07T06:56:56;99015.88;;;15.25;63.20
79250;BME280;68679;51.030;7.584;2023-05-07T06:59:21;99009.69;;;15.29;62.89
79250;BME280;68679;51.030;7.584;2023-05-07T07:01:47;99008.75;;;15.34;63.20
79250;BME280;68679;51.030;7.584;2023-05-07T07:04:12;99009.72;;;15.38;63.18
79250;BME280;68679;51.030;7.584;2023-05-07T07:06:37;99011.16;;;15.44;63.19
79250;BME280;68679;51.030;7.584;2023-05-07T07:09:03;99012.41;;;15.47;63.00
79250;BME280;68679;51.030;7.584;2023-05-07T07:11:28;99011.50;;;15.51;62.86
79250;BME280;68679;51.030;7.584;2023-05-07T07:13:53;99005.78;;;15.58;62.57
79250;BME280;68679;51.030;7.584;2023-05-07T07:16:20;99004.13;;;15.62;62.58
79250;BME280;68679;51.030;7.584;2023-05-07T07:18:45;98999.00;;;15.66;62.66
79250;BME280;68679;51.030;7.584;2023-05-07T07:21:11;99008.06;;;15.73;62.50
79250;BME280;68679;51.030;7.584;2023-05-07T07:23:36;99002.16;;;15.76;62.42
79250;BME280;68679;51.030;7.584;2023-05-07T07:26:01;99005.28;;;15.78;62.47
79250;BME280;68679;51.030;7.584;2023-05-07T07:28:27;98997.22;;;15.84;62.34
79250;BME280;68679;51.030;7.584;2023-05-07T07:30:52;99002.66;;;15.87;62.16
79250;BME280;68679;51.030;7.584;2023-05-07T07:33:17;98996.16;;;15.93;62.03
79250;BME280;68679;51.030;7.584;2023-05-07T07:35:42;99011.09;;;15.98;62.37
79250;BME280;68679;51.030;7.584;2023-05-07T07:38:08;99005.50;;;15.99;62.18
79250;BME280;68679;51.030;7.584;2023-05-07T07:40:36;99013.75;;;16.06;61.94
79250;BME280;68679;51.030;7.584;2023-05-07T07:43:01;99011.28;;;16.10;62.15
79250;BME280;68679;51.030;7.584;2023-05-07T07:45:27;99006.94;;;16.14;61.84
79250;BME280;68679;51.030;7.584;2023-05-07T07:47:52;99016.91;;;16.17;61.89
79250;BME280;68679;51.030;7.584;2023-05-07T07:50:17;99016.75;;;16.22;61.49
79250;BME280;68679;51.030;7.584;2023-05-07T07:52:43;99018.50;;;16.27;61.72
79250;BME280;68679;51.030;7.584;2023-05-07T07:55:09;99020.50;;;16.30;61.54
79250;BME280;68679;51.030;7.584;2023-05-07T07:57:34;99024.09;;;16.34;61.64
79250;BME280;68679;51.030;7.584;2023-05-07T07:59:59;99028.00;;;16.36;61.58
79250;BME280;68679;51.030;7.584;2023-05-07T08:02:25;99032.38;;;16.41;61.63
79250;BME280;68679;51.030;7.584;2023-05-07T08:04:51;99027.25;;;16.45;61.44
79250;BME280;68679;51.030;7.584;2023-05-07T08:07:16;99030.34;;;16.47;61.12
79250;BME280;68679;51.030;7.584;2023-05-07T08:09:43;99035.50;;;16.52;61.30
79250;BME280;68679;51.030;7.584;2023-05-07T08:12:09;99029.09;;;16.53;61.63
79250;BME280;68679;51.030;7.584;2023-05-07T08:14:34;99022.88;;;16.57;61.24
79250;BME280;68679;51.030;7.584;2023-05-07T08:17:01;99027.41;;;16.66;61.36
79250;BME280;68679;51.030;7.584;2023-05-07T08:19:26;99030.88;;;16.75;61.49
79250;BME280;68679;51.030;7.584;2023-05-07T08:21:51;99026.50;;;16.79;61.29
79250;BME280;68679;51.030;7.584;2023-05-07T08:24:17;99027.91;;;16.85;60.64
79250;BME280;68679;51.030;7.584;2023-05-07T08:26:44;99022.13;;;16.92;60.83
79250;BME280;68679;51.030;7.584;2023-05-07T08:29:10;99031.97;;;17.00;60.97
79250;BME280;68679;51.030;7.584;2023-05-07T08:31:35;99024.16;;;17.12;61.12
79250;BME280;68679;51.030;7.584;2023-05-07T08:34:01;99029.75;;;17.19;60.87
79250;BME280;68679;51.030;7.584;2023-05-07T08:36:26;99033.63;;;17.30;60.79
79250;BME280;68679;51.030;7.584;2023-05-07T08:38:52;99043.88;;;17.40;60.94
79250;BME280;68679;51.030;7.584;2023-05-07T08:41:17;99029.69;;;17.45;60.75
79250;BME280;68679;51.030;7.584;2023-05-07T08:43:47;99035.59;;;17.51;61.07
79250;BME280;68679;51.030;7.584;2023-05-07T08:46:13;99034.34;;;17.57;61.17
79250;BME280;68679;51.030;7.584;2023-05-07T08:48:40;99025.56;;;17.65;60.76
79250;BME280;68679;51.030;7.584;2023-05-07T08:51:06;99030.25;;;17.68;60.31
79250;BME280;68679;51.030;7.584;2023-05-07T08:53:31;99034.31;;;17.74;60.44
79250;BME280;68679;51.030;7.584;2023-05-07T08:55:56;99026.97;;;17.80;61.04
79250;BME280;68679;51.030;7.584;2023-05-07T08:58:22;99027.88;;;17.84;61.12
79250;BME280;68679;51.030;7.584;2023-05-07T09:00:47;99030.34;;;17.89;61.22
79250;BME280;68679;51.030;7.584;2023-05-07T09:03:12;99031.28;;;17.93;61.06
79250;BME280;68679;51.030;7.584;2023-05-07T09:05:39;99038.09;;;18.03;60.43
79250;BME280;68679;51.030;7.584;2023-05-07T09:08:06;99037.59;;;18.09;61.06
79250;BME280;68679;51.030;7.584;2023-05-07T09:10:35;99036.94;;;18.12;61.31
79250;BME280;68679;51.030;7.584;2023-05-07T09:13:00;99039.75;;;18.16;60.69
79250;BME280;68679;51.030;7.584;2023-05-07T09:15:26;99033.47;;;18.20;60.88
79250;BME280;68679;51.030;7.584;2023-05-07T09:17:53;99030.50;;;18.22;60.95
79250;BME280;68679;51.030;7.584;2023-05-07T09:20:18;99038.22;;;18.36;61.17
79250;BME280;68679;51.030;7.584;2023-05-07T09:22:43;99024.56;;;18.46;60.98
79250;BME280;68679;51.030;7.584;2023-05-07T09:25:09;99024.75;;;18.41;61.02
79250;BME280;68679;51.030;7.584;2023-05-07T09:27:35;99022.56;;;18.43;60.97
79250;BME280;68679;51.030;7.584;2023-05-07T09:30:06;99022.69;;;18.46;61.27
79250;BME280;68679;51.030;7.584;2023-05-07T09:32:35;99016.53;;;18.55;61.37
79250;BME280;68679;51.030;7.584;2023-05-07T09:35:01;99019.16;;;18.63;61.09
79250;BME280;68679;51.030;7.584;2023-05-07T09:37:28;99020.84;;;18.68;60.72
79250;BME280;68679;51.030;7.584;2023-05-07T09:39:55;99022.34;;;18.78;60.87
79250;BME280;68679;51.030;7.584;2023-05-07T09:42:24;99017.59;;;18.83;61.14
79250;BME280;68679;51.030;7.584;2023-05-07T09:44:51;99012.88;;;18.89;60.86
79250;BME280;68679;51.030;7.584;2023-05-07T09:47:19;99010.66;;;18.91;60.63
79250;BME280;68679;51.030;7.584;2023-05-07T09:49:47;99014.66;;;18.97;61.00
79250;BME280;68679;51.030;7.584;2023-05-07T09:52:13;99024.22;;;19.10;61.01
79250;BME280;68679;51.030;7.584;2023-05-07T09:54:40;99013.88;;;19.17;60.56
79250;BME280;68679;51.030;7.584;2023-05-07T09:57:10;99013.31;;;19.24;61.26
79250;BME280;68679;51.030;7.584;2023-05-07T09:59:37;99022.19;;;19.28;60.82
79250;BME280;68679;51.030;7.584;2023-05-07T10:02:03;99015.09;;;19.32;60.85
79250;BME280;68679;51.030;7.584;2023-05-07T10:04:30;99016.44;;;19.38;60.51
79250;BME280;68679;51.030;7.584;2023-05-07T10:06:56;99011.69;;;19.44;60.38
79250;BME280;68679;51.030;7.584;2023-05-07T10:09:22;99018.78;;;19.52;60.12
79250;BME280;68679;51.030;7.584;2023-05-07T10:11:51;99017.59;;;19.49;60.29
79250;BME280;68679;51.030;7.584;2023-05-07T10:14:17;99010.28;;;19.59;60.37
79250;BME280;68679;51.030;7.584;2023-05-07T10:16:42;99020.19;;;19.70;60.13
79250;BME280;68679;51.030;7.584;2023-05-07T10:19:09;99015.41;;;19.76;59.37
79250;BME280;68679;51.030;7.584;2023-05-07T10:21:39;99012.19;;;19.82;60.50
79250;BME280;68679;51.030;7.584;2023-05-07T10:24:16;99005.47;;;19.85;60.62
79250;BME280;68679;51.030;7.584;2023-05-07T10:26:47;99006.09;;;19.94;60.28
79250;BME280;68679;51.030;7.584;2023-05-07T10:32:33;99010.88;;;20.01;60.63
79250;BME280;68679;51.030;7.584;2023-05-07T10:35:03;99000.78;;;20.06;60.31
79250;BME280;68679;51.030;7.584;2023-05-07T10:37:29;99007.66;;;20.07;60.52
79250;BME280;68679;51.030;7.584;2023-05-07T10:39:55;99011.88;;;20.21;59.87
79250;BME280;68679;51.030;7.584;2023-05-07T10:42:21;99006.75;;;20.28;59.94
79250;BME280;68679;51.030;7.584;2023-05-07T10:44:46;99005.06;;;20.35;60.27
79250;BME280;68679;51.030;7.584;2023-05-07T10:47:14;99013.47;;;20.38;60.02
79250;BME280;68679;51.030;7.584;2023-05-07T10:52:19;99017.19;;;20.45;60.08
79250;BME280;68679;51.030;7.584;2023-05-07T10:54:46;99009.28;;;20.49;59.73
79250;BME280;68679;51.030;7.584;2023-05-07T10:57:36;99016.38;;;20.57;60.07
79250;BME280;68679;51.030;7.584;2023-05-07T11:00:02;99007.16;;;20.54;59.93
79250;BME280;68679;51.030;7.584;2023-05-07T11:05:24;99018.03;;;20.49;60.01
79250;BME280;68679;51.030;7.584;2023-05-07T11:08:00;99022.16;;;20.47;60.44
79250;BME280;68679;51.030;7.584;2023-05-07T11:10:51;99021.41;;;20.46;60.36
79250;BME280;68679;51.030;7.584;2023-05-07T11:13:17;99006.97;;;20.47;60.14
79250;BME280;68679;51.030;7.584;2023-05-07T11:15:47;99016.25;;;20.53;59.74
79250;BME280;68679;51.030;7.584;2023-05-07T11:18:14;99014.25;;;20.50;59.85
79250;BME280;68679;51.030;7.584;2023-05-07T11:20:51;99014.53;;;20.45;60.23
79250;BME280;68679;51.030;7.584;2023-05-07T11:25:59;99016.38;;;20.45;59.88
79250;BME280;68679;51.030;7.584;2023-05-07T11:28:27;99017.19;;;20.45;60.05
79250;BME280;68679;51.030;7.584;2023-05-07T11:30:53;99011.06;;;20.45;59.78
79250;BME280;68679;51.030;7.584;2023-05-07T11:33:18;99019.50;;;20.47;59.96
79250;BME280;68679;51.030;7.584;2023-05-07T11:35:44;99022.50;;;20.45;59.94
79250;BME280;68679;51.030;7.584;2023-05-07T11:38:10;99007.94;;;20.43;59.66
79250;BME280;68679;51.030;7.584;2023-05-07T11:40:51;99007.16;;;20.42;60.22
79250;BME280;68679;51.030;7.584;2023-05-07T11:43:17;99003.38;;;20.43;59.72
79250;BME280;68679;51.030;7.584;2023-05-07T11:45:44;99012.63;;;20.46;59.42
79250;BME280;68679;51.030;7.584;2023-05-07T11:48:12;99006.97;;;20.47;59.40
79250;BME280;68679;51.030;7.584;2023-05-07T11:50:50;99009.47;;;20.56;59.69
79250;BME280;68679;51.030;7.584;2023-05-07T11:53:15;99010.69;;;20.58;59.51
79250;BME280;68679;51.030;7.584;2023-05-07T11:55:42;99006.16;;;20.59;58.95
79250;BME280;68679;51.030;7.584;2023-05-07T11:58:10;99006.69;;;20.65;58.97
79250;BME280;68679;51.030;7.584;2023-05-07T12:00:35;99004.78;;;20.65;59.11
79250;BME280;68679;51.030;7.584;2023-05-07T12:03:04;99004.44;;;20.67;58.80
79250;BME280;68679;51.030;7.584;2023-05-07T12:05:30;99001.22;;;20.73;58.70
79250;BME280;68679;51.030;7.584;2023-05-07T12:07:56;98999.78;;;20.76;58.96
79250;BME280;68679;51.030;7.584;2023-05-07T12:10:22;98994.97;;;20.81;58.75
79250;BME280;68679;51.030;7.584;2023-05-07T12:12:49;98999.06;;;20.79;58.43
79250;BME280;68679;51.030;7.584;2023-05-07T12:15:22;99004.16;;;20.84;58.43
79250;BME280;68679;51.030;7.584;2023-05-07T12:17:48;99006.72;;;20.80;57.66
79250;BME280;68679;51.030;7.584;2023-05-07T12:20:13;99003.41;;;20.83;57.81
79250;BME280;68679;51.030;7.584;2023-05-07T12:22:40;99008.72;;;20.83;57.23
79250;BME280;68679;51.030;7.584;2023-05-07T12:25:06;99003.81;;;20.85;57.60
79250;BME280;68679;51.030;7.584;2023-05-07T12:27:32;99014.25;;;20.91;57.76
79250;BME280;68679;51.030;7.584;2023-05-07T12:29:57;99004.16;;;20.84;57.92
79250;BME280;68679;51.030;7.584;2023-05-07T12:32:24;99014.72;;;20.80;57.91
79250;BME280;68679;51.030;7.584;2023-05-07T12:34:50;99002.09;;;20.77;56.72
79250;BME280;68679;51.030;7.584;2023-05-07T12:37:16;99006.66;;;20.77;56.79
79250;BME280;68679;51.030;7.584;2023-05-07T12:39:48;99007.50;;;20.81;56.85
79250;BME280;68679;51.030;7.584;2023-05-07T12:42:20;99009.69;;;20.91;56.84
79250;BME280;68679;51.030;7.584;2023-05-07T12:44:50;99009.25;;;20.89;56.38
79250;BME280;68679;51.030;7.584;2023-05-07T12:47:17;99013.00;;;20.72;57.26
79250;BME280;68679;51.030;7.584;2023-05-07T12:49:42;99012.50;;;20.82;56.82
79250;BME280;68679;51.030;7.584;2023-05-07T12:52:08;99015.25;;;20.86;56.73
79250;BME280;68679;51.030;7.584;2023-05-07T12:54:37;99018.16;;;20.81;56.72
79250;BME280;68679;51.030;7.584;2023-05-07T12:57:04;99022.06;;;20.83;56.37
79250;BME280;68679;51.030;7.584;2023-05-07T12:59:38;99018.09;;;20.77;56.84
79250;BME280;68679;51.030;7.584;2023-05-07T13:02:05;99017.84;;;20.82;56.59
79250;BME280;68679;51.030;7.584;2023-05-07T13:04:30;99020.50;;;20.82;56.09
79250;BME280;68679;51.030;7.584;2023-05-07T13:06:56;99018.28;;;20.84;56.46